sensor_id;sensor_type;location;lat;lon;timestamp;temperature;humidity
1379;DHT22;683;48.738;9.226;2023-01-19T00:01:29;-3.50;99.90
1379;DHT22;683;48.738;9.226;2023-01-19T00:03:57;-3.50;99.90
1379;DHT22;683;48.738;9.226;2023-01-19T00:06:24;-3.60;99.90
1379;DHT22;683;48.738;9.226;2023-01-19T00:08:52;-3.60;99.90
1379;DHT22;683;48.738;9.226;2023-01-19T00:11:19;-3.60;99.90
1379;DHT22;683;48.738;9.226;2023-01-19T00:13:47;-3.60;99.90
1379;DHT22;683;48.738;9.226;2023-01-19T00:16:16;-3.60;99.90
1379;DHT22;683;48.738;9.226;2023-01-19T00:18:45;-3.60;99.90
1379;DHT22;683;48.738;9.226;2023-01-19T00:21:13;-3.60;99.90
1379;DHT22;683;48.738;9.226;2023-01-19T00:23:40;-3.60;99.90
1379;DHT22;683;48.738;9.226;2023-01-19T00:26:09;-3.60;99.90
1379;DHT22;683;48.738;9.226;2023-01-19T00:28:36;-3.60;99.90
1379;DHT22;683;48.738;9.226;2023-01-19T00:31:03;-3.60;99.90
1379;DHT22;683;48.738;9.226;2023-01-19T00:33:31;-3.60;99.90
1379;DHT22;683;48.738;9.226;2023-01-19T00:36:00;-3.60;99.90
1379;DHT22;683;48.738;9.226;2023-01-19T00:38:27;-3.60;99.90
1379;DHT22;683;48.738;9.226;2023-01-19T00:40:55;-3.60;99.90
1379;DHT22;683;48.738;9.226;2023-01-19T00:43:22;-3.60;99.90
1379;DHT22;683;48.738;9.226;2023-01-19T00:45:49;-3.70;99.90
1379;DHT22;683;48.738;9.226;2023-01-19T00:48:16;-3.70;99.90
1379;DHT22;683;48.738;9.226;2023-01-19T00:50:43;-3.70;99.90
1379;DHT22;683;48.738;9.226;2023-01-19T00:53:12;-3.60;99.90
1379;DHT22;683;48.738;9.226;2023-01-19T00:55:40;-3.70;99.90
1379;DHT22;683;48.738;9.226;2023-01-19T00:58:07;-3.70;99.90
1379;DHT22;683;48.738;9.226;2023-01-19T01:00:35;-3.70;99.90
1379;DHT22;683;48.738;9.226;2023-01-19T01:03:02;-3.70;99.90
1379;DHT22;683;48.738;9.226;2023-01-19T01:05:29;-3.70;99.90
1379;DHT22;683;48.738;9.226;2023-01-19T01:07:57;-3.70;99.90
1379;DHT22;683;48.738;9.226;2023-01-19T01:10:27;-3.70;99.90
1379;DHT22;683;48.738;9.226;2023-01-19T01:12:55;-3.70;99.90
1379;DHT22;683;48.738;9.226;2023-01-19T01:15:23;-3.60;99.90
1379;DHT22;683;48.738;9.226;2023-01-19T01:17:51;-3.60;99.90
1379;DHT22;683;48.738;9.226;2023-01-19T01:20:19;-3.60;99.90
1379;DHT22;683;48.738;9.226;2023-01-19T01:22:49;-3.60;99.90
1379;DHT22;683;48.738;9.226;2023-01-19T01:25:18;-3.60;99.90
1379;DHT22;683;48.738;9.226;2023-01-19T01:27:49;-3.70;99.90
1379;DHT22;683;48.738;9.226;2023-01-19T01:30:17;-3.70;99.90
1379;DHT22;683;48.738;9.226;2023-01-19T01:32:45;-3.70;99.90
1379;DHT22;683;48.738;9.226;2023-01-19T01:35:12;-3.70;99.90
1379;DHT22;683;48.738;9.226;2023-01-19T01:37:40;-3.70;99.90
1379;DHT22;683;48.738;9.226;2023-01-19T01:40:11;-3.70;99.90
1379;DHT22;683;48.738;9.226;2023-01-19T01:42:39;-3.70;99.90
1379;DHT22;683;48.738;9.226;2023-01-19T01:45:28;-3.80;99.90
1379;DHT22;683;48.738;9.226;2023-01-19T01:47:59;-3.80;99.90
1379;DHT22;683;48.738;9.226;2023-01-19T01:50:29;-3.70;99.90
1379;DHT22;683;48.738;9.226;2023-01-19T01:53:04;-3.80;99.90
1379;DHT22;683;48.738;9.226;2023-01-19T01:55:36;-3.70;99.90
1379;DHT22;683;48.738;9.226;2023-01-19T01:58:06;-3.80;99.90
1379;DHT22;683;48.738;9.226;2023-01-19T02:00:38;-3.80;99.90
1379;DHT22;683;48.738;9.226;2023-01-19T02:03:21;-3.80;99.90
1379;DHT22;683;48.738;9.226;2023-01-19T02:05:49;-3.90;99.90
1379;DHT22;683;48.738;9.226;2023-01-19T02:08:20;-3.90;99.90
1379;DHT22;683;48.738;9.226;2023-01-19T02:11:09;-3.90;99.90
1379;DHT22;683;48.738;9.226;2023-01-19T02:13:54;-3.90;99.90
1379;DHT22;683;48.738;9.226;2023-01-19T02:16:23;-3.90;99.90
1379;DHT22;683;48.738;9.226;2023-01-19T02:18:50;-3.90;99.90
1379;DHT22;683;48.738;9.226;2023-01-19T02:21:21;-3.90;99.90
1379;DHT22;683;48.738;9.226;2023-01-19T02:23:52;-3.90;99.90
1379;DHT22;683;48.738;9.226;2023-01-19T02:26:22;-3.90;99.90
1379;DHT22;683;48.738;9.226;2023-01-19T02:28:54;-3.90;99.90
1379;DHT22;683;48.738;9.226;2023-01-19T02:31:23;-3.90;99.90
1379;DHT22;683;48.738;9.226;2023-01-19T02:33:51;-3.90;99.90
1379;DHT22;683;48.738;9.226;2023-01-19T02:36:22;-3.90;99.90
1379;DHT22;683;48.738;9.226;2023-01-19T02:38:54;-3.90;99.90
1379;DHT22;683;48.738;9.226;2023-01-19T02:41:25;-3.90;99.90
1379;DHT22;683;48.738;9.226;2023-01-19T02:43:55;-3.90;99.90
1379;DHT22;683;48.738;9.226;2023-01-19T02:46:24;-3.90;99.90
1379;DHT22;683;48.738;9.226;2023-01-19T02:48:51;-3.90;99.90
1379;DHT22;683;48.738;9.226;2023-01-19T02:51:24;-3.90;99.90
1379;DHT22;683;48.738;9.226;2023-01-19T02:54:20;-3.90;99.90
1379;DHT22;683;48.738;9.226;2023-01-19T02:57:19;-3.90;99.90
1379;DHT22;683;48.738;9.226;2023-01-19T03:00:07;-3.90;99.90
1379;DHT22;683;48.738;9.226;2023-01-19T03:02:46;-3.90;99.90
1379;DHT22;683;48.738;9.226;2023-01-19T03:05:26;-4.00;99.90
1379;DHT22;683;48.738;9.226;2023-01-19T03:08:01;-3.90;99.90
1379;DHT22;683;48.738;9.226;2023-01-19T03:10:40;-3.90;99.90
1379;DHT22;683;48.738;9.226;2023-01-19T03:13:13;-3.90;99.90
1379;DHT22;683;48.738;9.226;2023-01-19T03:15:45;-3.90;99.90
1379;DHT22;683;48.738;9.226;2023-01-19T03:18:19;-3.90;99.90
1379;DHT22;683;48.738;9.226;2023-01-19T03:20:50;-3.90;99.90
1379;DHT22;683;48.738;9.226;2023-01-19T03:23:20;-4.00;99.90
1379;DHT22;683;48.738;9.226;2023-01-19T03:25:50;-3.90;99.90
1379;DHT22;683;48.738;9.226;2023-01-19T03:28:20;-3.90;99.90
1379;DHT22;683;48.738;9.226;2023-01-19T03:30:53;-3.90;99.90
1379;DHT22;683;48.738;9.226;2023-01-19T03:33:24;-4.00;99.90
1379;DHT22;683;48.738;9.226;2023-01-19T03:35:58;-4.00;99.90
1379;DHT22;683;48.738;9.226;2023-01-19T03:38:31;-4.00;99.90
1379;DHT22;683;48.738;9.226;2023-01-19T03:41:05;-4.00;99.90
1379;DHT22;683;48.738;9.226;2023-01-19T03:43:34;-4.00;99.90
1379;DHT22;683;48.738;9.226;2023-01-19T03:46:03;-4.10;99.90
1379;DHT22;683;48.738;9.226;2023-01-19T03:48:31;-4.10;99.90
1379;DHT22;683;48.738;9.226;2023-01-19T03:51:02;-4.10;99.90
1379;DHT22;683;48.738;9.226;2023-01-19T03:53:30;-4.10;99.90
1379;DHT22;683;48.738;9.226;2023-01-19T03:55:57;-4.10;99.90
1379;DHT22;683;48.738;9.226;2023-01-19T03:58:26;-4.20;99.90
1379;DHT22;683;48.738;9.226;2023-01-19T04:00:54;-4.30;99.90
1379;DHT22;683;48.738;9.226;2023-01-19T04:03:21;-4.30;99.90
1379;DHT22;683;48.738;9.226;2023-01-19T04:05:49;-4.30;99.90
1379;DHT22;683;48.738;9.226;2023-01-19T04:08:16;-4.30;99.90
1379;DHT22;683;48.738;9.226;2023-01-19T04:10:44;-4.30;99.90
1379;DHT22;683;48.738;9.226;2023-01-19T04:13:11;-4.30;99.90
1379;DHT22;683;48.738;9.226;2023-01-19T04:15:40;-4.30;99.90
1379;DHT22;683;48.738;9.226;2023-01-19T04:18:08;-4.30;99.90
1379;DHT22;683;48.738;9.226;2023-01-19T04:20:36;-4.30;99.90
1379;DHT22;683;48.738;9.226;2023-01-19T04:23:03;-4.30;99.90
1379;DHT22;683;48.738;9.226;2023-01-19T04:25:31;-4.30;99.90
1379;DHT22;683;48.738;9.226;2023-01-19T04:27:58;-4.30;99.90
1379;DHT22;683;48.738;9.226;2023-01-19T04:30:26;-4.30;99.90
1379;DHT22;683;48.738;9.226;2023-01-19T04:32:56;-4.30;99.90
1379;DHT22;683;48.738;9.226;2023-01-19T04:35:24;-4.30;99.90
1379;DHT22;683;48.738;9.226;2023-01-19T04:37:52;-4.30;99.90
1379;DHT22;683;48.738;9.226;2023-01-19T04:40:19;-4.30;99.90
1379;DHT22;683;48.738;9.226;2023-01-19T04:42:47;-4.30;99.90
1379;DHT22;683;48.738;9.226;2023-01-19T04:45:14;-4.30;99.90
1379;DHT22;683;48.738;9.226;2023-01-19T04:47:42;-4.30;99.90
1379;DHT22;683;48.738;9.226;2023-01-19T04:50:11;-4.30;99.90
1379;DHT22;683;48.738;9.226;2023-01-19T04:52:38;-4.20;99.90
1379;DHT22;683;48.738;9.226;2023-01-19T04:55:07;-4.30;99.90
1379;DHT22;683;48.738;9.226;2023-01-19T04:57:34;-4.30;99.90
1379;DHT22;683;48.738;9.226;2023-01-19T05:00:02;-4.30;99.90
1379;DHT22;683;48.738;9.226;2023-01-19T05:02:31;-4.30;99.90
1379;DHT22;683;48.738;9.226;2023-01-19T05:04:59;-4.20;99.90
1379;DHT22;683;48.738;9.226;2023-01-19T05:07:28;-4.20;99.90
1379;DHT22;683;48.738;9.226;2023-01-19T05:09:56;-4.20;99.90
1379;DHT22;683;48.738;9.226;2023-01-19T05:12:23;-4.20;99.90
1379;DHT22;683;48.738;9.226;2023-01-19T05:14:50;-4.10;99.90
1379;DHT22;683;48.738;9.226;2023-01-19T05:17:18;-4.10;99.90
1379;DHT22;683;48.738;9.226;2023-01-19T05:19:45;-4.00;99.90
1379;DHT22;683;48.738;9.226;2023-01-19T05:22:14;-3.90;99.90
1379;DHT22;683;48.738;9.226;2023-01-19T05:24:43;-3.90;99.90
1379;DHT22;683;48.738;9.226;2023-01-19T05:27:11;-3.90;99.90
1379;DHT22;683;48.738;9.226;2023-01-19T05:29:38;-4.00;99.90
1379;DHT22;683;48.738;9.226;2023-01-19T05:32:05;-4.00;99.90
1379;DHT22;683;48.738;9.226;2023-01-19T05:34:33;-4.00;99.90
1379;DHT22;683;48.738;9.226;2023-01-19T05:37:00;-4.00;99.90
1379;DHT22;683;48.738;9.226;2023-01-19T05:39:28;-4.00;99.90
1379;DHT22;683;48.738;9.226;2023-01-19T05:41:56;-4.10;99.90
1379;DHT22;683;48.738;9.226;2023-01-19T05:44:24;-4.10;99.90
1379;DHT22;683;48.738;9.226;2023-01-19T05:46:51;-4.10;99.90
1379;DHT22;683;48.738;9.226;2023-01-19T05:49:19;-4.10;99.90
1379;DHT22;683;48.738;9.226;2023-01-19T05:51:46;-4.20;99.90
1379;DHT22;683;48.738;9.226;2023-01-19T05:54:14;-4.20;99.90
1379;DHT22;683;48.738;9.226;2023-01-19T05:56:41;-4.20;99.90
1379;DHT22;683;48.738;9.226;2023-01-19T05:59:10;-4.20;99.90
1379;DHT22;683;48.738;9.226;2023-01-19T06:01:38;-4.20;99.90
1379;DHT22;683;48.738;9.226;2023-01-19T06:04:06;-4.20;99.90
1379;DHT22;683;48.738;9.226;2023-01-19T06:06:34;-4.20;99.90
1379;DHT22;683;48.738;9.226;2023-01-19T06:09:01;-4.20;99.90
1379;DHT22;683;48.738;9.226;2023-01-19T06:11:28;-4.20;99.90
1379;DHT22;683;48.738;9.226;2023-01-19T06:13:56;-4.20;99.90
1379;DHT22;683;48.738;9.226;2023-01-19T06:16:25;-4.20;99.90
1379;DHT22;683;48.738;9.226;2023-01-19T06:18:55;-4.20;99.90
1379;DHT22;683;48.738;9.226;2023-01-19T06:21:24;-4.20;99.90
1379;DHT22;683;48.738;9.226;2023-01-19T06:23:51;-4.20;99.90
1379;DHT22;683;48.738;9.226;2023-01-19T06:26:19;-4.20;99.90
1379;DHT22;683;48.738;9.226;2023-01-19T06:28:46;-4.20;99.90
1379;DHT22;683;48.738;9.226;2023-01-19T06:31:14;-4.10;99.90
1379;DHT22;683;48.738;9.226;2023-01-19T06:33:42;-4.10;99.90
1379;DHT22;683;48.738;9.226;2023-01-19T06:36:10;-4.10;99.90
1379;DHT22;683;48.738;9.226;2023-01-19T06:38:37;-4.00;99.90
1379;DHT22;683;48.738;9.226;2023-01-19T06:41:05;-4.00;99.90
1379;DHT22;683;48.738;9.226;2023-01-19T06:43:32;-4.00;99.90
1379;DHT22;683;48.738;9.226;2023-01-19T06:46:00;-3.90;99.90
1379;DHT22;683;48.738;9.226;2023-01-19T06:48:28;-3.90;99.90
1379;DHT22;683;48.738;9.226;2023-01-19T06:50:57;-3.90;99.90
1379;DHT22;683;48.738;9.226;2023-01-19T06:53:24;-3.80;99.90
1379;DHT22;683;48.738;9.226;2023-01-19T06:55:52;-3.70;99.90
1379;DHT22;683;48.738;9.226;2023-01-19T06:58:20;-3.70;99.90
1379;DHT22;683;48.738;9.226;2023-01-19T07:00:47;-3.70;99.90
1379;DHT22;683;48.738;9.226;2023-01-19T07:03:18;-3.70;99.90
1379;DHT22;683;48.738;9.226;2023-01-19T07:05:49;-3.70;99.90
1379;DHT22;683;48.738;9.226;2023-01-19T07:08:18;-3.80;99.90
1379;DHT22;683;48.738;9.226;2023-01-19T07:10:45;-3.80;99.90
1379;DHT22;683;48.738;9.226;2023-01-19T07:13:13;-3.80;99.90
1379;DHT22;683;48.738;9.226;2023-01-19T07:15:41;-3.90;99.90
1379;DHT22;683;48.738;9.226;2023-01-19T07:18:08;-3.90;99.90
1379;DHT22;683;48.738;9.226;2023-01-19T07:20:36;-3.90;99.90
1379;DHT22;683;48.738;9.226;2023-01-19T07:23:04;-4.00;99.90
1379;DHT22;683;48.738;9.226;2023-01-19T07:25:33;-3.90;99.90
1379;DHT22;683;48.738;9.226;2023-01-19T07:28:00;-3.90;99.90
1379;DHT22;683;48.738;9.226;2023-01-19T07:30:28;-3.90;99.90
1379;DHT22;683;48.738;9.226;2023-01-19T07:32:56;-3.90;99.90
1379;DHT22;683;48.738;9.226;2023-01-19T07:35:24;-3.80;99.90
1379;DHT22;683;48.738;9.226;2023-01-19T07:37:51;-3.70;99.90
1379;DHT22;683;48.738;9.226;2023-01-19T07:40:18;-3.70;99.90
1379;DHT22;683;48.738;9.226;2023-01-19T07:42:48;-3.70;99.90
1379;DHT22;683;48.738;9.226;2023-01-19T07:45:17;-3.70;99.90
1379;DHT22;683;48.738;9.226;2023-01-19T07:47:46;-3.70;99.90
1379;DHT22;683;48.738;9.226;2023-01-19T07:50:15;-3.70;99.90
1379;DHT22;683;48.738;9.226;2023-01-19T07:52:46;-3.70;99.90
1379;DHT22;683;48.738;9.226;2023-01-19T07:55:15;-3.70;99.90
1379;DHT22;683;48.738;9.226;2023-01-19T07:58:16;-3.70;99.90
1379;DHT22;683;48.738;9.226;2023-01-19T08:00:44;-3.60;99.90
1379;DHT22;683;48.738;9.226;2023-01-19T08:03:12;-3.60;99.90
1379;DHT22;683;48.738;9.226;2023-01-19T08:05:39;-3.60;99.90
1379;DHT22;683;48.738;9.226;2023-01-19T08:08:07;-3.50;99.90
1379;DHT22;683;48.738;9.226;2023-01-19T08:10:36;-3.40;99.90
1379;DHT22;683;48.738;9.226;2023-01-19T08:13:04;-3.30;99.90
1379;DHT22;683;48.738;9.226;2023-01-19T08:15:32;-3.30;99.90
1379;DHT22;683;48.738;9.226;2023-01-19T08:18:01;-3.30;99.90
1379;DHT22;683;48.738;9.226;2023-01-19T08:20:30;-3.20;99.90
1379;DHT22;683;48.738;9.226;2023-01-19T08:22:58;-3.30;99.90
1379;DHT22;683;48.738;9.226;2023-01-19T08:25:31;-3.20;99.90
1379;DHT22;683;48.738;9.226;2023-01-19T08:28:00;-3.20;99.90
1379;DHT22;683;48.738;9.226;2023-01-19T08:30:27;-3.10;99.90
1379;DHT22;683;48.738;9.226;2023-01-19T08:32:57;-3.00;99.90
1379;DHT22;683;48.738;9.226;2023-01-19T08:35:29;-2.90;99.90
1379;DHT22;683;48.738;9.226;2023-01-19T08:37:56;-2.80;99.90
1379;DHT22;683;48.738;9.226;2023-01-19T08:40:26;-2.80;99.90
1379;DHT22;683;48.738;9.226;2023-01-19T08:42:57;-2.80;99.90
1379;DHT22;683;48.738;9.226;2023-01-19T08:45:28;-2.90;99.90
1379;DHT22;683;48.738;9.226;2023-01-19T08:47:58;-2.90;99.90
1379;DHT22;683;48.738;9.226;2023-01-19T08:50:26;-2.90;99.90
1379;DHT22;683;48.738;9.226;2023-01-19T08:52:55;-2.90;99.90
1379;DHT22;683;48.738;9.226;2023-01-19T08:55:23;-2.90;99.90
1379;DHT22;683;48.738;9.226;2023-01-19T08:57:51;-2.90;99.90
1379;DHT22;683;48.738;9.226;2023-01-19T09:00:19;-2.90;99.90
1379;DHT22;683;48.738;9.226;2023-01-19T09:02:47;-2.90;99.90
1379;DHT22;683;48.738;9.226;2023-01-19T09:05:16;-2.80;99.90
1379;DHT22;683;48.738;9.226;2023-01-19T09:07:44;-2.70;99.90
1379;DHT22;683;48.738;9.226;2023-01-19T09:10:13;-2.60;99.90
1379;DHT22;683;48.738;9.226;2023-01-19T09:12:41;-2.40;99.90
1379;DHT22;683;48.738;9.226;2023-01-19T09:15:10;-2.30;99.90
1379;DHT22;683;48.738;9.226;2023-01-19T09:17:41;-2.10;99.90
1379;DHT22;683;48.738;9.226;2023-01-19T09:20:09;-2.00;99.90
1379;DHT22;683;48.738;9.226;2023-01-19T09:22:38;-2.00;99.90
1379;DHT22;683;48.738;9.226;2023-01-19T09:25:06;-1.90;99.90
1379;DHT22;683;48.738;9.226;2023-01-19T09:27:34;-1.90;99.90
1379;DHT22;683;48.738;9.226;2023-01-19T09:30:02;-1.90;99.90
1379;DHT22;683;48.738;9.226;2023-01-19T09:32:30;-1.80;99.90
1379;DHT22;683;48.738;9.226;2023-01-19T09:35:00;-1.70;99.90
1379;DHT22;683;48.738;9.226;2023-01-19T09:37:27;-1.60;99.90
1379;DHT22;683;48.738;9.226;2023-01-19T09:39:56;-1.50;99.90
1379;DHT22;683;48.738;9.226;2023-01-19T09:42:29;-1.40;99.90
1379;DHT22;683;48.738;9.226;2023-01-19T09:44:57;-1.20;99.90
1379;DHT22;683;48.738;9.226;2023-01-19T09:47:29;-1.10;99.90
1379;DHT22;683;48.738;9.226;2023-01-19T09:50:01;-1.00;99.90
1379;DHT22;683;48.738;9.226;2023-01-19T09:52:30;-0.90;99.90
1379;DHT22;683;48.738;9.226;2023-01-19T09:55:00;-0.80;99.90
1379;DHT22;683;48.738;9.226;2023-01-19T09:57:34;-0.80;99.90
1379;DHT22;683;48.738;9.226;2023-01-19T10:00:12;-0.70;99.90
1379;DHT22;683;48.738;9.226;2023-01-19T10:02:44;-0.50;99.90
1379;DHT22;683;48.738;9.226;2023-01-19T10:05:24;-0.50;99.90
1379;DHT22;683;48.738;9.226;2023-01-19T10:08:03;-0.40;99.90
1379;DHT22;683;48.738;9.226;2023-01-19T10:10:36;-0.40;99.90
1379;DHT22;683;48.738;9.226;2023-01-19T10:16:17;-0.40;99.90
1379;DHT22;683;48.738;9.226;2023-01-19T10:18:50;-0.30;99.90
1379;DHT22;683;48.738;9.226;2023-01-19T10:21:21;-0.10;99.90
1379;DHT22;683;48.738;9.226;2023-01-19T10:23:51;0.00;99.90
1379;DHT22;683;48.738;9.226;2023-01-19T10:26:23;0.00;99.90
1379;DHT22;683;48.738;9.226;2023-01-19T10:28:53;0.00;99.90
1379;DHT22;683;48.738;9.226;2023-01-19T10:31:23;-0.10;99.90
1379;DHT22;683;48.738;9.226;2023-01-19T10:33:51;0.00;99.90
1379;DHT22;683;48.738;9.226;2023-01-19T10:36:20;0.00;99.90
1379;DHT22;683;48.738;9.226;2023-01-19T10:38:48;0.20;99.90
1379;DHT22;683;48.738;9.226;2023-01-19T10:41:22;0.30;99.90
1379;DHT22;683;48.738;9.226;2023-01-19T10:43:59;0.30;99.90
1379;DHT22;683;48.738;9.226;2023-01-19T10:46:32;0.40;99.90
1379;DHT22;683;48.738;9.226;2023-01-19T10:49:00;0.50;99.90
1379;DHT22;683;48.738;9.226;2023-01-19T10:51:28;0.50;99.90
1379;DHT22;683;48.738;9.226;2023-01-19T10:53:58;0.40;99.90
1379;DHT22;683;48.738;9.226;2023-01-19T10:56:30;0.50;99.90
1379;DHT22;683;48.738;9.226;2023-01-19T10:59:02;0.50;99.90
1379;DHT22;683;48.738;9.226;2023-01-19T11:01:30;0.50;99.90
1379;DHT22;683;48.738;9.226;2023-01-19T11:04:19;0.30;99.90
1379;DHT22;683;48.738;9.226;2023-01-19T11:06:47;0.40;99.90
1379;DHT22;683;48.738;9.226;2023-01-19T11:09:16;0.40;99.90
1379;DHT22;683;48.738;9.226;2023-01-19T11:11:48;0.60;99.90
1379;DHT22;683;48.738;9.226;2023-01-19T11:14:18;0.70;99.90
1379;DHT22;683;48.738;9.226;2023-01-19T11:16:49;0.60;99.90
1379;DHT22;683;48.738;9.226;2023-01-19T11:19:25;0.60;99.90
1379;DHT22;683;48.738;9.226;2023-01-19T11:22:08;0.60;99.90
1379;DHT22;683;48.738;9.226;2023-01-19T11:24:37;0.60;99.90
1379;DHT22;683;48.738;9.226;2023-01-19T11:27:06;0.60;99.90
1379;DHT22;683;48.738;9.226;2023-01-19T11:29:35;0.80;99.90
1379;DHT22;683;48.738;9.226;2023-01-19T11:32:11;0.90;99.90
1379;DHT22;683;48.738;9.226;2023-01-19T11:34:38;0.70;99.90
1379;DHT22;683;48.738;9.226;2023-01-19T11:37:25;0.70;99.90
1379;DHT22;683;48.738;9.226;2023-01-19T11:39:55;0.80;99.90
1379;DHT22;683;48.738;9.226;2023-01-19T11:42:26;0.90;99.90
1379;DHT22;683;48.738;9.226;2023-01-19T11:44:59;0.90;99.90
1379;DHT22;683;48.738;9.226;2023-01-19T11:47:33;1.00;99.90
1379;DHT22;683;48.738;9.226;2023-01-19T11:50:05;1.20;99.90
1379;DHT22;683;48.738;9.226;2023-01-19T11:52:41;1.30;99.90
1379;DHT22;683;48.738;9.226;2023-01-19T11:55:16;1.40;99.90
1379;DHT22;683;48.738;9.226;2023-01-19T11:57:47;1.30;99.90
1379;DHT22;683;48.738;9.226;2023-01-19T12:00:24;1.40;99.90
1379;DHT22;683;48.738;9.226;2023-01-19T12:02:57;1.50;99.90
1379;DHT22;683;48.738;9.226;2023-01-19T12:05:30;1.60;99.90
1379;DHT22;683;48.738;9.226;2023-01-19T12:08:01;1.80;99.90
1379;DHT22;683;48.738;9.226;2023-01-19T12:10:31;1.70;99.70
1379;DHT22;683;48.738;9.226;2023-01-19T12:13:05;1.70;99.70
1379;DHT22;683;48.738;9.226;2023-01-19T12:15:41;1.50;99.50
1379;DHT22;683;48.738;9.226;2023-01-19T12:18:32;1.30;99.40
1379;DHT22;683;48.738;9.226;2023-01-19T12:21:01;1.10;99.90
1379;DHT22;683;48.738;9.226;2023-01-19T12:23:42;1.10;99.90
1379;DHT22;683;48.738;9.226;2023-01-19T12:26:33;1.20;99.90
1379;DHT22;683;48.738;9.226;2023-01-19T12:29:10;1.20;99.90
1379;DHT22;683;48.738;9.226;2023-01-19T12:34:56;1.10;99.90
1379;DHT22;683;48.738;9.226;2023-01-19T12:37:39;1.00;99.90
1379;DHT22;683;48.738;9.226;2023-01-19T12:40:24;0.90;99.90
1379;DHT22;683;48.738;9.226;2023-01-19T12:42:59;0.90;99.90
1379;DHT22;683;48.738;9.226;2023-01-19T12:45:46;0.80;99.90
1379;DHT22;683;48.738;9.226;2023-01-19T12:48:23;0.90;99.90
1379;DHT22;683;48.738;9.226;2023-01-19T12:50:51;0.80;99.90
1379;DHT22;683;48.738;9.226;2023-01-19T12:53:20;0.80;99.90
1379;DHT22;683;48.738;9.226;2023-01-19T12:56:03;0.80;99.90
1379;DHT22;683;48.738;9.226;2023-01-19T12:58:35;0.90;99.90
1379;DHT22;683;48.738;9.226;2023-01-19T13:01:14;0.80;99.90
1379;DHT22;683;48.738;9.226;2023-01-19T13:04:28;0.90;99.90
1379;DHT22;683;48.738;9.226;2023-01-19T13:07:07;0.90;99.90
1379;DHT22;683;48.738;9.226;2023-01-19T13:09:38;0.80;99.90
1379;DHT22;683;48.738;9.226;2023-01-19T13:12:19;0.80;99.90
1379;DHT22;683;48.738;9.226;2023-01-19T13:14:47;0.80;99.90
1379;DHT22;683;48.738;9.226;2023-01-19T13:17:35;0.90;99.90
1379;DHT22;683;48.738;9.226;2023-01-19T13:20:23;0.90;99.90
1379;DHT22;683;48.738;9.226;2023-01-19T13:23:15;1.00;99.90
1379;DHT22;683;48.738;9.226;2023-01-19T13:25:48;1.00;99.90
1379;DHT22;683;48.738;9.226;2023-01-19T13:28:17;0.90;99.90
1379;DHT22;683;48.738;9.226;2023-01-19T13:30:55;0.90;99.90
1379;DHT22;683;48.738;9.226;2023-01-19T13:33:27;0.90;99.90
1379;DHT22;683;48.738;9.226;2023-01-19T13:35:57;0.90;99.90
1379;DHT22;683;48.738;9.226;2023-01-19T13:38:26;0.80;99.90
1379;DHT22;683;48.738;9.226;2023-01-19T13:40:55;0.80;99.90
1379;DHT22;683;48.738;9.226;2023-01-19T13:43:27;0.80;99.90
1379;DHT22;683;48.738;9.226;2023-01-19T13:45:55;0.80;99.90
1379;DHT22;683;48.738;9.226;2023-01-19T13:48:25;0.80;99.90
1379;DHT22;683;48.738;9.226;2023-01-19T13:51:16;0.90;99.90
1379;DHT22;683;48.738;9.226;2023-01-19T13:53:53;0.90;99.90
1379;DHT22;683;48.738;9.226;2023-01-19T13:56:22;1.00;99.90
1379;DHT22;683;48.738;9.226;2023-01-19T13:59:06;1.00;99.90
1379;DHT22;683;48.738;9.226;2023-01-19T14:01:38;1.10;99.90
1379;DHT22;683;48.738;9.226;2023-01-19T14:04:26;1.10;99.90
1379;DHT22;683;48.738;9.226;2023-01-19T14:06:56;1.10;99.90
1379;DHT22;683;48.738;9.226;2023-01-19T14:09:24;1.20;99.90
1379;DHT22;683;48.738;9.226;2023-01-19T14:12:13;1.20;99.90
1379;DHT22;683;48.738;9.226;2023-01-19T14:14:41;1.20;99.90
1379;DHT22;683;48.738;9.226;2023-01-19T14:17:21;1.30;99.90
1379;DHT22;683;48.738;9.226;2023-01-19T14:19:51;1.30;99.90
1379;DHT22;683;48.738;9.226;2023-01-19T14:22:19;1.30;99.90
1379;DHT22;683;48.738;9.226;2023-01-19T14:24:46;1.30;99.90
1379;DHT22;683;48.738;9.226;2023-01-19T14:27:19;1.30;99.90
1379;DHT22;683;48.738;9.226;2023-01-19T14:29:50;1.20;99.90
1379;DHT22;683;48.738;9.226;2023-01-19T14:35:23;1.20;99.90
1379;DHT22;683;48.738;9.226;2023-01-19T14:37:51;1.10;99.90
1379;DHT22;683;48.738;9.226;2023-01-19T14:40:20;1.20;99.90
1379;DHT22;683;48.738;9.226;2023-01-19T14:42:51;1.20;99.90
1379;DHT22;683;48.738;9.226;2023-01-19T14:45:21;1.20;99.90
1379;DHT22;683;48.738;9.226;2023-01-19T14:47:54;1.20;99.90
1379;DHT22;683;48.738;9.226;2023-01-19T14:50:27;1.20;99.90
1379;DHT22;683;48.738;9.226;2023-01-19T14:52:57;1.20;99.90
1379;DHT22;683;48.738;9.226;2023-01-19T14:55:37;1.20;99.90
1379;DHT22;683;48.738;9.226;2023-01-19T14:58:09;1.20;99.90
1379;DHT22;683;48.738;9.226;2023-01-19T15:00:37;1.20;99.90
1379;DHT22;683;48.738;9.226;2023-01-19T15:03:04;1.20;99.90
1379;DHT22;683;48.738;9.226;2023-01-19T15:05:33;1.20;99.90
1379;DHT22;683;48.738;9.226;2023-01-19T15:08:01;1.20;99.90
1379;DHT22;683;48.738;9.226;2023-01-19T15:10:30;1.20;99.90
1379;DHT22;683;48.738;9.226;2023-01-19T15:12:58;1.20;99.90
1379;DHT22;683;48.738;9.226;2023-01-19T15:15:29;1.20;99.90
1379;DHT22;683;48.738;9.226;2023-01-19T15:17:58;1.20;99.90
1379;DHT22;683;48.738;9.226;2023-01-19T15:20:27;1.20;99.90
1379;DHT22;683;48.738;9.226;2023-01-19T15:22:56;1.10;99.90
1379;DHT22;683;48.738;9.226;2023-01-19T15:25:23;1.00;99.90
1379;DHT22;683;48.738;9.226;2023-01-19T15:27:52;1.00;99.90
1379;DHT22;683;48.738;9.226;2023-01-19T15:30:24;0.90;99.90
1379;DHT22;683;48.738;9.226;2023-01-19T15:32:54;1.00;99.90
1379;DHT22;683;48.738;9.226;2023-01-19T15:35:23;0.90;99.90
1379;DHT22;683;48.738;9.226;2023-01-19T15:37:51;0.90;99.90
1379;DHT22;683;48.738;9.226;2023-01-19T15:40:20;0.90;99.90
1379;DHT22;683;48.738;9.226;2023-01-19T15:42:48;0.90;99.90
1379;DHT22;683;48.738;9.226;2023-01-19T15:45:34;0.90;99.90
1379;DHT22;683;48.738;9.226;2023-01-19T15:48:03;0.90;99.90
1379;DHT22;683;48.738;9.226;2023-01-19T15:50:31;0.90;99.90
1379;DHT22;683;48.738;9.226;2023-01-19T15:52:59;0.90;99.90
1379;DHT22;683;48.738;9.226;2023-01-19T15:55:28;0.80;99.90
1379;DHT22;683;48.738;9.226;2023-01-19T15:57:55;0.80;99.90
1379;DHT22;683;48.738;9.226;2023-01-19T16:00:27;0.80;99.90
1379;DHT22;683;48.738;9.226;2023-01-19T16:02:54;0.80;99.90
1379;DHT22;683;48.738;9.226;2023-01-19T16:05:22;0.80;99.90
1379;DHT22;683;48.738;9.226;2023-01-19T16:07:50;0.70;99.90
1379;DHT22;683;48.738;9.226;2023-01-19T16:10:20;0.80;99.90
1379;DHT22;683;48.738;9.226;2023-01-19T16:12:49;0.80;99.90
1379;DHT22;683;48.738;9.226;2023-01-19T16:15:20;0.70;99.90
1379;DHT22;683;48.738;9.226;2023-01-19T16:17:48;0.70;99.90
1379;DHT22;683;48.738;9.226;2023-01-19T16:20:16;0.70;99.90
1379;DHT22;683;48.738;9.226;2023-01-19T16:22:43;0.70;99.90
1379;DHT22;683;48.738;9.226;2023-01-19T16:25:11;0.70;99.90
1379;DHT22;683;48.738;9.226;2023-01-19T16:27:52;0.70;99.90
1379;DHT22;683;48.738;9.226;2023-01-19T16:30:19;0.70;99.90
1379;DHT22;683;48.738;9.226;2023-01-19T16:32:47;0.70;99.90
1379;DHT22;683;48.738;9.226;2023-01-19T16:35:14;0.70;99.90
1379;DHT22;683;48.738;9.226;2023-01-19T16:37:42;0.70;99.90
1379;DHT22;683;48.738;9.226;2023-01-19T16:40:10;0.70;99.90
1379;DHT22;683;48.738;9.226;2023-01-19T16:42:38;0.70;99.90
1379;DHT22;683;48.738;9.226;2023-01-19T16:45:08;0.70;99.90
1379;DHT22;683;48.738;9.226;2023-01-19T16:47:36;0.60;99.90
1379;DHT22;683;48.738;9.226;2023-01-19T16:50:09;0.60;99.90
1379;DHT22;683;48.738;9.226;2023-01-19T16:52:37;0.60;99.90
1379;DHT22;683;48.738;9.226;2023-01-19T16:55:05;0.50;99.90
1379;DHT22;683;48.738;9.226;2023-01-19T16:57:34;0.50;99.90